sensor_id;sensor_type;location;lat;lon;timestamp;P1;durP1;ratioP1;P2;durP2;ratioP2
22080;SDS011;11207;59.512;18.050;2023-12-22T00:01:08;2.60;;;2.50;;
22080;SDS011;11207;59.512;18.050;2023-12-22T00:03:33;3.37;;;2.67;;
22080;SDS011;11207;59.512;18.050;2023-12-22T00:05:59;2.43;;;2.33;;
22080;SDS011;11207;59.512;18.050;2023-12-22T00:08:25;2.67;;;2.47;;
22080;SDS011;11207;59.512;18.050;2023-12-22T00:10:50;2.70;;;2.50;;
22080;SDS011;11207;59.512;18.050;2023-12-22T00:13:16;3.07;;;2.87;;
22080;SDS011;11207;59.512;18.050;2023-12-22T00:15:41;2.57;;;2.37;;
22080;SDS011;11207;59.512;18.050;2023-12-22T00:18:10;2.73;;;2.50;;
22080;SDS011;11207;59.512;18.050;2023-12-22T00:20:35;2.60;;;2.50;;
22080;SDS011;11207;59.512;18.050;2023-12-22T00:23:01;3.43;;;2.60;;
22080;SDS011;11207;59.512;18.050;2023-12-22T00:25:27;3.13;;;2.83;;
22080;SDS011;11207;59.512;18.050;2023-12-22T00:27:52;3.10;;;2.30;;
22080;SDS011;11207;59.512;18.050;2023-12-22T00:30:18;3.87;;;2.90;;
22080;SDS011;11207;59.512;18.050;2023-12-22T00:32:44;2.80;;;2.60;;
22080;SDS011;11207;59.512;18.050;2023-12-22T00:35:10;2.40;;;2.30;;
22080;SDS011;11207;59.512;18.050;2023-12-22T00:37:35;2.70;;;2.50;;
22080;SDS011;11207;59.512;18.050;2023-12-22T00:40:01;3.60;;;2.60;;
22080;SDS011;11207;59.512;18.050;2023-12-22T00:42:29;2.90;;;2.70;;
22080;SDS011;11207;59.512;18.050;2023-12-22T00:44:54;2.60;;;2.40;;
22080;SDS011;11207;59.512;18.050;2023-12-22T00:47:20;2.50;;;2.30;;
22080;SDS011;11207;59.512;18.050;2023-12-22T00:49:46;2.37;;;2.27;;
22080;SDS011;11207;59.512;18.050;2023-12-22T00:52:11;2.80;;;2.53;;
22080;SDS011;11207;59.512;18.050;2023-12-22T00:54:37;2.77;;;2.57;;
22080;SDS011;11207;59.512;18.050;2023-12-22T00:57:03;2.60;;;2.40;;
22080;SDS011;11207;59.512;18.050;2023-12-22T00:59:29;2.80;;;2.70;;
22080;SDS011;11207;59.512;18.050;2023-12-22T01:01:54;2.27;;;2.17;;
22080;SDS011;11207;59.512;18.050;2023-12-22T01:04:20;2.60;;;2.40;;
22080;SDS011;11207;59.512;18.050;2023-12-22T01:06:46;3.37;;;2.50;;
22080;SDS011;11207;59.512;18.050;2023-12-22T01:09:11;3.53;;;2.60;;
22080;SDS011;11207;59.512;18.050;2023-12-22T01:11:37;3.03;;;2.63;;
22080;SDS011;11207;59.512;18.050;2023-12-22T01:14:02;4.57;;;2.53;;
22080;SDS011;11207;59.512;18.050;2023-12-22T01:16:28;3.87;;;2.40;;
22080;SDS011;11207;59.512;18.050;2023-12-22T01:18:53;2.60;;;2.50;;
22080;SDS011;11207;59.512;18.050;2023-12-22T01:21:19;2.67;;;2.57;;
22080;SDS011;11207;59.512;18.050;2023-12-22T01:23:45;3.13;;;2.70;;
22080;SDS011;11207;59.512;18.050;2023-12-22T01:26:10;3.50;;;2.40;;
22080;SDS011;11207;59.512;18.050;2023-12-22T01:28:36;2.60;;;2.40;;
22080;SDS011;11207;59.512;18.050;2023-12-22T01:31:02;4.67;;;2.80;;
22080;SDS011;11207;59.512;18.050;2023-12-22T01:33:28;2.77;;;2.50;;
22080;SDS011;11207;59.512;18.050;2023-12-22T01:35:54;3.00;;;2.53;;
22080;SDS011;11207;59.512;18.050;2023-12-22T01:38:20;2.63;;;2.43;;
22080;SDS011;11207;59.512;18.050;2023-12-22T01:40:45;2.83;;;2.63;;
22080;SDS011;11207;59.512;18.050;2023-12-22T01:43:11;3.47;;;2.40;;
22080;SDS011;11207;59.512;18.050;2023-12-22T01:45:38;2.83;;;2.63;;
22080;SDS011;11207;59.512;18.050;2023-12-22T01:48:04;2.77;;;2.40;;
22080;SDS011;11207;59.512;18.050;2023-12-22T01:50:30;4.63;;;2.50;;
22080;SDS011;11207;59.512;18.050;2023-12-22T01:52:56;3.60;;;2.83;;
22080;SDS011;11207;59.512;18.050;2023-12-22T01:55:22;3.47;;;2.60;;
22080;SDS011;11207;59.512;18.050;2023-12-22T01:57:49;2.73;;;2.53;;
22080;SDS011;11207;59.512;18.050;2023-12-22T02:00:15;2.40;;;2.30;;
22080;SDS011;11207;59.512;18.050;2023-12-22T02:02:42;2.67;;;2.47;;
22080;SDS011;11207;59.512;18.050;2023-12-22T02:05:08;2.70;;;2.50;;
22080;SDS011;11207;59.512;18.050;2023-12-22T02:07:36;2.87;;;2.67;;
22080;SDS011;11207;59.512;18.050;2023-12-22T02:10:05;2.57;;;2.37;;
22080;SDS011;11207;59.512;18.050;2023-12-22T02:12:35;2.57;;;2.37;;
22080;SDS011;11207;59.512;18.050;2023-12-22T02:15:03;2.50;;;2.30;;
22080;SDS011;11207;59.512;18.050;2023-12-22T02:17:44;3.10;;;2.57;;
22080;SDS011;11207;59.512;18.050;2023-12-22T02:20:12;2.63;;;2.43;;
22080;SDS011;11207;59.512;18.050;2023-12-22T02:22:38;2.50;;;2.27;;
22080;SDS011;11207;59.512;18.050;2023-12-22T02:25:04;2.60;;;2.50;;
22080;SDS011;11207;59.512;18.050;2023-12-22T02:27:35;2.73;;;2.50;;
22080;SDS011;11207;59.512;18.050;2023-12-22T02:30:11;2.60;;;2.50;;
22080;SDS011;11207;59.512;18.050;2023-12-22T02:32:44;2.30;;;2.20;;
22080;SDS011;11207;59.512;18.050;2023-12-22T02:35:14;3.30;;;2.77;;
22080;SDS011;11207;59.512;18.050;2023-12-22T02:37:42;2.60;;;2.40;;
22080;SDS011;11207;59.512;18.050;2023-12-22T02:40:10;2.23;;;2.13;;
22080;SDS011;11207;59.512;18.050;2023-12-22T02:42:37;2.50;;;2.37;;
22080;SDS011;11207;59.512;18.050;2023-12-22T02:45:06;2.70;;;2.60;;
22080;SDS011;11207;59.512;18.050;2023-12-22T02:47:42;2.97;;;2.80;;
22080;SDS011;11207;59.512;18.050;2023-12-22T02:50:08;2.50;;;2.40;;
22080;SDS011;11207;59.512;18.050;2023-12-22T02:52:34;2.90;;;2.50;;
22080;SDS011;11207;59.512;18.050;2023-12-22T02:55:00;2.67;;;2.57;;
22080;SDS011;11207;59.512;18.050;2023-12-22T02:57:26;2.47;;;2.37;;
22080;SDS011;11207;59.512;18.050;2023-12-22T02:59:52;2.63;;;2.50;;
22080;SDS011;11207;59.512;18.050;2023-12-22T03:02:18;2.50;;;2.40;;
22080;SDS011;11207;59.512;18.050;2023-12-22T03:04:46;2.50;;;2.40;;
22080;SDS011;11207;59.512;18.050;2023-12-22T03:07:12;2.27;;;2.17;;
22080;SDS011;11207;59.512;18.050;2023-12-22T03:09:39;2.30;;;2.20;;
22080;SDS011;11207;59.512;18.050;2023-12-22T03:12:05;2.40;;;2.30;;
22080;SDS011;11207;59.512;18.050;2023-12-22T03:14:32;2.40;;;2.30;;
22080;SDS011;11207;59.512;18.050;2023-12-22T03:17:01;2.50;;;2.40;;
22080;SDS011;11207;59.512;18.050;2023-12-22T03:19:28;2.40;;;2.30;;
22080;SDS011;11207;59.512;18.050;2023-12-22T03:21:54;2.50;;;2.40;;
22080;SDS011;11207;59.512;18.050;2023-12-22T03:24:20;2.60;;;2.40;;
22080;SDS011;11207;59.512;18.050;2023-12-22T03:26:47;2.40;;;2.30;;
22080;SDS011;11207;59.512;18.050;2023-12-22T03:29:14;2.30;;;2.20;;
22080;SDS011;11207;59.512;18.050;2023-12-22T03:31:39;2.33;;;2.23;;
22080;SDS011;11207;59.512;18.050;2023-12-22T03:34:05;2.67;;;2.47;;
22080;SDS011;11207;59.512;18.050;2023-12-22T03:36:31;2.30;;;2.20;;
22080;SDS011;11207;59.512;18.050;2023-12-22T03:38:57;2.37;;;2.27;;
22080;SDS011;11207;59.512;18.050;2023-12-22T03:41:22;2.80;;;2.60;;
22080;SDS011;11207;59.512;18.050;2023-12-22T03:43:48;2.50;;;2.40;;
22080;SDS011;11207;59.512;18.050;2023-12-22T03:46:13;2.63;;;2.50;;
22080;SDS011;11207;59.512;18.050;2023-12-22T03:48:39;2.83;;;2.63;;
22080;SDS011;11207;59.512;18.050;2023-12-22T03:51:05;2.87;;;2.67;;
22080;SDS011;11207;59.512;18.050;2023-12-22T03:53:30;3.33;;;3.07;;
22080;SDS011;11207;59.512;18.050;2023-12-22T03:55:56;3.23;;;2.97;;
22080;SDS011;11207;59.512;18.050;2023-12-22T03:58:21;3.07;;;2.87;;
22080;SDS011;11207;59.512;18.050;2023-12-22T04:00:47;2.70;;;2.60;;
22080;SDS011;11207;59.512;18.050;2023-12-22T04:03:13;2.93;;;2.73;;
22080;SDS011;11207;59.512;18.050;2023-12-22T04:05:39;3.00;;;2.80;;
22080;SDS011;11207;59.512;18.050;2023-12-22T04:08:05;3.10;;;2.90;;
22080;SDS011;11207;59.512;18.050;2023-12-22T04:10:31;3.00;;;2.80;;
22080;SDS011;11207;59.512;18.050;2023-12-22T04:12:57;3.60;;;3.30;;
22080;SDS011;11207;59.512;18.050;2023-12-22T04:15:22;2.80;;;2.60;;
22080;SDS011;11207;59.512;18.050;2023-12-22T04:17:48;3.00;;;2.80;;
22080;SDS011;11207;59.512;18.050;2023-12-22T04:20:14;3.07;;;2.87;;
22080;SDS011;11207;59.512;18.050;2023-12-22T04:22:40;3.37;;;3.17;;
22080;SDS011;11207;59.512;18.050;2023-12-22T04:25:06;3.00;;;2.80;;
22080;SDS011;11207;59.512;18.050;2023-12-22T04:27:33;3.07;;;2.87;;
22080;SDS011;11207;59.512;18.050;2023-12-22T04:29:59;3.30;;;2.93;;
22080;SDS011;11207;59.512;18.050;2023-12-22T04:32:25;3.70;;;3.37;;
22080;SDS011;11207;59.512;18.050;2023-12-22T04:34:50;3.23;;;3.03;;
22080;SDS011;11207;59.512;18.050;2023-12-22T04:37:16;3.60;;;3.30;;
22080;SDS011;11207;59.512;18.050;2023-12-22T04:39:41;3.53;;;3.23;;
22080;SDS011;11207;59.512;18.050;2023-12-22T04:42:07;3.47;;;2.97;;
22080;SDS011;11207;59.512;18.050;2023-12-22T04:44:33;3.13;;;2.90;;
22080;SDS011;11207;59.512;18.050;2023-12-22T04:46:59;3.40;;;3.13;;
22080;SDS011;11207;59.512;18.050;2023-12-22T04:49:24;3.50;;;3.20;;
22080;SDS011;11207;59.512;18.050;2023-12-22T04:51:50;3.43;;;3.13;;
22080;SDS011;11207;59.512;18.050;2023-12-22T04:54:15;3.13;;;2.90;;
22080;SDS011;11207;59.512;18.050;2023-12-22T04:56:41;3.90;;;3.57;;
22080;SDS011;11207;59.512;18.050;2023-12-22T04:59:06;4.03;;;3.40;;
22080;SDS011;11207;59.512;18.050;2023-12-22T05:01:33;3.70;;;3.40;;
22080;SDS011;11207;59.512;18.050;2023-12-22T05:03:58;4.10;;;3.43;;
22080;SDS011;11207;59.512;18.050;2023-12-22T05:06:24;3.97;;;3.40;;
22080;SDS011;11207;59.512;18.050;2023-12-22T05:08:49;5.00;;;3.43;;
22080;SDS011;11207;59.512;18.050;2023-12-22T05:11:15;3.40;;;3.10;;
22080;SDS011;11207;59.512;18.050;2023-12-22T05:13:41;4.00;;;3.60;;
22080;SDS011;11207;59.512;18.050;2023-12-22T05:16:08;4.47;;;3.60;;
22080;SDS011;11207;59.512;18.050;2023-12-22T05:18:33;4.00;;;3.60;;
22080;SDS011;11207;59.512;18.050;2023-12-22T05:20:59;4.50;;;4.07;;
22080;SDS011;11207;59.512;18.050;2023-12-22T05:23:24;4.73;;;3.90;;
22080;SDS011;11207;59.512;18.050;2023-12-22T05:25:50;4.10;;;3.70;;
22080;SDS011;11207;59.512;18.050;2023-12-22T05:28:16;3.60;;;3.30;;
22080;SDS011;11207;59.512;18.050;2023-12-22T05:30:42;3.70;;;3.40;;
22080;SDS011;11207;59.512;18.050;2023-12-22T05:33:07;4.30;;;3.90;;
22080;SDS011;11207;59.512;18.050;2023-12-22T05:35:33;4.40;;;3.43;;
22080;SDS011;11207;59.512;18.050;2023-12-22T05:37:58;4.00;;;3.60;;
22080;SDS011;11207;59.512;18.050;2023-12-22T05:40:24;4.20;;;3.80;;
22080;SDS011;11207;59.512;18.050;2023-12-22T05:42:50;3.70;;;3.40;;
22080;SDS011;11207;59.512;18.050;2023-12-22T05:45:16;4.67;;;3.97;;
22080;SDS011;11207;59.512;18.050;2023-12-22T05:47:42;3.43;;;3.13;;
22080;SDS011;11207;59.512;18.050;2023-12-22T05:50:07;4.23;;;3.73;;
22080;SDS011;11207;59.512;18.050;2023-12-22T05:52:33;4.10;;;3.70;;
22080;SDS011;11207;59.512;18.050;2023-12-22T05:54:59;4.33;;;3.40;;
22080;SDS011;11207;59.512;18.050;2023-12-22T05:57:25;4.13;;;3.63;;
22080;SDS011;11207;59.512;18.050;2023-12-22T05:59:51;3.97;;;3.67;;
22080;SDS011;11207;59.512;18.050;2023-12-22T06:02:16;4.97;;;3.70;;
22080;SDS011;11207;59.512;18.050;2023-12-22T06:04:43;4.43;;;3.50;;
22080;SDS011;11207;59.512;18.050;2023-12-22T06:07:09;5.17;;;3.43;;
22080;SDS011;11207;59.512;18.050;2023-12-22T06:09:35;4.43;;;4.03;;
22080;SDS011;11207;59.512;18.050;2023-12-22T06:12:01;4.00;;;3.60;;
22080;SDS011;11207;59.512;18.050;2023-12-22T06:14:27;4.20;;;3.50;;
22080;SDS011;11207;59.512;18.050;2023-12-22T06:16:53;3.40;;;3.10;;
22080;SDS011;11207;59.512;18.050;2023-12-22T06:19:21;4.00;;;3.60;;
22080;SDS011;11207;59.512;18.050;2023-12-22T06:21:50;4.00;;;3.60;;
22080;SDS011;11207;59.512;18.050;2023-12-22T06:24:15;3.43;;;3.13;;
22080;SDS011;11207;59.512;18.050;2023-12-22T06:26:41;4.10;;;3.70;;
22080;SDS011;11207;59.512;18.050;2023-12-22T06:29:07;3.53;;;3.23;;
22080;SDS011;11207;59.512;18.050;2023-12-22T06:31:34;3.50;;;3.20;;
22080;SDS011;11207;59.512;18.050;2023-12-22T06:34:00;3.77;;;3.47;;
22080;SDS011;11207;59.512;18.050;2023-12-22T06:36:27;3.10;;;2.90;;
22080;SDS011;11207;59.512;18.050;2023-12-22T06:38:53;4.03;;;3.30;;
22080;SDS011;11207;59.512;18.050;2023-12-22T06:41:29;3.70;;;3.40;;
22080;SDS011;11207;59.512;18.050;2023-12-22T06:43:56;3.23;;;3.00;;
22080;SDS011;11207;59.512;18.050;2023-12-22T06:46:25;3.70;;;3.20;;
22080;SDS011;11207;59.512;18.050;2023-12-22T06:48:51;3.70;;;3.40;;
22080;SDS011;11207;59.512;18.050;2023-12-22T06:51:21;3.53;;;3.23;;
22080;SDS011;11207;59.512;18.050;2023-12-22T06:53:49;4.27;;;3.60;;
22080;SDS011;11207;59.512;18.050;2023-12-22T06:56:22;3.57;;;3.27;;
22080;SDS011;11207;59.512;18.050;2023-12-22T06:58:51;3.87;;;3.47;;
22080;SDS011;11207;59.512;18.050;2023-12-22T07:01:18;5.30;;;3.40;;
22080;SDS011;11207;59.512;18.050;2023-12-22T07:03:48;3.83;;;3.50;;
22080;SDS011;11207;59.512;18.050;2023-12-22T07:06:18;3.70;;;3.40;;
22080;SDS011;11207;59.512;18.050;2023-12-22T07:11:39;3.50;;;3.20;;
22080;SDS011;11207;59.512;18.050;2023-12-22T07:14:06;3.83;;;3.53;;
22080;SDS011;11207;59.512;18.050;2023-12-22T07:16:32;4.10;;;3.70;;
22080;SDS011;11207;59.512;18.050;2023-12-22T07:18:58;3.97;;;3.57;;
22080;SDS011;11207;59.512;18.050;2023-12-22T07:21:24;3.97;;;3.57;;
22080;SDS011;11207;59.512;18.050;2023-12-22T07:23:50;3.87;;;3.57;;
22080;SDS011;11207;59.512;18.050;2023-12-22T07:26:15;3.60;;;3.30;;
22080;SDS011;11207;59.512;18.050;2023-12-22T07:28:41;3.90;;;3.60;;
22080;SDS011;11207;59.512;18.050;2023-12-22T07:31:06;4.80;;;3.57;;
22080;SDS011;11207;59.512;18.050;2023-12-22T07:33:32;3.60;;;3.30;;
22080;SDS011;11207;59.512;18.050;2023-12-22T07:35:58;4.67;;;3.80;;
22080;SDS011;11207;59.512;18.050;2023-12-22T07:38:24;3.90;;;3.50;;
22080;SDS011;11207;59.512;18.050;2023-12-22T07:40:49;3.90;;;3.50;;
22080;SDS011;11207;59.512;18.050;2023-12-22T07:43:15;4.50;;;3.87;;
22080;SDS011;11207;59.512;18.050;2023-12-22T07:45:41;3.50;;;3.20;;
22080;SDS011;11207;59.512;18.050;2023-12-22T07:48:06;4.10;;;3.70;;
22080;SDS011;11207;59.512;18.050;2023-12-22T07:50:32;4.37;;;3.70;;
22080;SDS011;11207;59.512;18.050;2023-12-22T07:52:58;4.03;;;3.63;;
22080;SDS011;11207;59.512;18.050;2023-12-22T07:55:24;4.80;;;4.40;;
22080;SDS011;11207;59.512;18.050;2023-12-22T07:57:50;4.53;;;4.13;;
22080;SDS011;11207;59.512;18.050;2023-12-22T08:00:16;3.93;;;3.57;;
22080;SDS011;11207;59.512;18.050;2023-12-22T08:02:42;3.90;;;3.60;;
22080;SDS011;11207;59.512;18.050;2023-12-22T08:05:08;6.60;;;4.10;;
22080;SDS011;11207;59.512;18.050;2023-12-22T08:07:34;4.43;;;3.87;;
22080;SDS011;11207;59.512;18.050;2023-12-22T08:10:00;4.60;;;4.07;;
22080;SDS011;11207;59.512;18.050;2023-12-22T08:12:27;3.93;;;3.53;;
22080;SDS011;11207;59.512;18.050;2023-12-22T08:14:53;4.80;;;4.13;;
22080;SDS011;11207;59.512;18.050;2023-12-22T08:17:19;4.63;;;4.10;;
22080;SDS011;11207;59.512;18.050;2023-12-22T08:19:44;6.13;;;4.07;;
22080;SDS011;11207;59.512;18.050;2023-12-22T08:22:10;4.40;;;3.87;;
22080;SDS011;11207;59.512;18.050;2023-12-22T08:24:38;4.50;;;3.90;;
22080;SDS011;11207;59.512;18.050;2023-12-22T08:27:04;6.07;;;4.40;;
22080;SDS011;11207;59.512;18.050;2023-12-22T08:29:31;3.73;;;3.43;;
22080;SDS011;11207;59.512;18.050;2023-12-22T08:31:57;4.47;;;4.07;;
22080;SDS011;11207;59.512;18.050;2023-12-22T08:34:23;4.97;;;3.87;;
22080;SDS011;11207;59.512;18.050;2023-12-22T08:36:49;4.00;;;3.60;;
22080;SDS011;11207;59.512;18.050;2023-12-22T08:39:14;3.80;;;3.50;;
22080;SDS011;11207;59.512;18.050;2023-12-22T08:41:40;4.60;;;4.10;;
22080;SDS011;11207;59.512;18.050;2023-12-22T08:44:06;4.50;;;4.10;;
22080;SDS011;11207;59.512;18.050;2023-12-22T08:46:32;8.70;;;4.43;;
22080;SDS011;11207;59.512;18.050;2023-12-22T08:48:58;4.30;;;3.90;;
22080;SDS011;11207;59.512;18.050;2023-12-22T08:51:25;5.00;;;4.40;;
22080;SDS011;11207;59.512;18.050;2023-12-22T08:53:51;5.13;;;3.77;;
22080;SDS011;11207;59.512;18.050;2023-12-22T08:56:17;5.40;;;4.63;;
22080;SDS011;11207;59.512;18.050;2023-12-22T08:58:43;4.73;;;4.00;;
22080;SDS011;11207;59.512;18.050;2023-12-22T09:01:15;4.30;;;3.90;;
22080;SDS011;11207;59.512;18.050;2023-12-22T09:03:41;5.23;;;4.23;;
22080;SDS011;11207;59.512;18.050;2023-12-22T09:06:11;5.13;;;4.13;;
22080;SDS011;11207;59.512;18.050;2023-12-22T09:08:41;5.43;;;4.20;;
22080;SDS011;11207;59.512;18.050;2023-12-22T09:11:07;5.50;;;4.80;;
22080;SDS011;11207;59.512;18.050;2023-12-22T09:13:33;4.27;;;3.87;;
22080;SDS011;11207;59.512;18.050;2023-12-22T09:16:01;4.97;;;4.37;;
22080;SDS011;11207;59.512;18.050;2023-12-22T09:18:27;4.27;;;3.87;;
22080;SDS011;11207;59.512;18.050;2023-12-22T09:20:53;4.63;;;4.13;;
22080;SDS011;11207;59.512;18.050;2023-12-22T09:23:19;5.13;;;4.63;;
22080;SDS011;11207;59.512;18.050;2023-12-22T09:25:46;6.23;;;4.77;;
22080;SDS011;11207;59.512;18.050;2023-12-22T09:28:12;6.70;;;4.57;;
22080;SDS011;11207;59.512;18.050;2023-12-22T09:30:37;5.53;;;4.20;;
22080;SDS011;11207;59.512;18.050;2023-12-22T09:33:03;6.20;;;4.87;;
22080;SDS011;11207;59.512;18.050;2023-12-22T09:35:29;4.83;;;4.27;;
22080;SDS011;11207;59.512;18.050;2023-12-22T09:37:55;6.90;;;4.63;;
22080;SDS011;11207;59.512;18.050;2023-12-22T09:40:20;5.33;;;4.20;;
22080;SDS011;11207;59.512;18.050;2023-12-22T09:42:49;5.23;;;4.47;;
22080;SDS011;11207;59.512;18.050;2023-12-22T09:45:19;6.13;;;4.90;;
22080;SDS011;11207;59.512;18.050;2023-12-22T09:47:46;5.03;;;4.53;;
22080;SDS011;11207;59.512;18.050;2023-12-22T09:50:13;5.03;;;4.43;;
22080;SDS011;11207;59.512;18.050;2023-12-22T09:52:41;6.43;;;4.83;;
22080;SDS011;11207;59.512;18.050;2023-12-22T09:55:09;6.83;;;5.00;;
22080;SDS011;11207;59.512;18.050;2023-12-22T09:57:35;4.80;;;4.40;;
22080;SDS011;11207;59.512;18.050;2023-12-22T10:00:03;6.63;;;4.67;;
22080;SDS011;11207;59.512;18.050;2023-12-22T10:02:35;5.87;;;4.80;;
22080;SDS011;11207;59.512;18.050;2023-12-22T10:05:02;5.13;;;4.53;;
22080;SDS011;11207;59.512;18.050;2023-12-22T10:07:28;5.50;;;4.60;;
22080;SDS011;11207;59.512;18.050;2023-12-22T10:09:55;4.90;;;4.27;;
22080;SDS011;11207;59.512;18.050;2023-12-22T10:12:22;5.77;;;4.53;;
22080;SDS011;11207;59.512;18.050;2023-12-22T10:14:49;5.13;;;4.53;;
22080;SDS011;11207;59.512;18.050;2023-12-22T10:17:16;5.90;;;4.77;;
22080;SDS011;11207;59.512;18.050;2023-12-22T10:19:42;5.57;;;4.90;;
22080;SDS011;11207;59.512;18.050;2023-12-22T10:22:08;5.77;;;4.50;;
22080;SDS011;11207;59.512;18.050;2023-12-22T10:24:40;5.73;;;4.80;;
22080;SDS011;11207;59.512;18.050;2023-12-22T10:27:07;4.63;;;4.20;;
22080;SDS011;11207;59.512;18.050;2023-12-22T10:29:34;6.90;;;5.00;;
22080;SDS011;11207;59.512;18.050;2023-12-22T10:32:00;4.70;;;4.13;;
22080;SDS011;11207;59.512;18.050;2023-12-22T10:34:26;6.63;;;4.87;;
22080;SDS011;11207;59.512;18.050;2023-12-22T10:36:52;6.07;;;4.67;;
22080;SDS011;11207;59.512;18.050;2023-12-22T10:39:18;6.17;;;4.83;;
22080;SDS011;11207;59.512;18.050;2023-12-22T10:41:43;6.13;;;4.93;;
22080;SDS011;11207;59.512;18.050;2023-12-22T10:44:09;7.07;;;5.23;;
22080;SDS011;11207;59.512;18.050;2023-12-22T10:46:35;5.70;;;4.90;;
22080;SDS011;11207;59.512;18.050;2023-12-22T10:49:01;7.23;;;5.70;;
22080;SDS011;11207;59.512;18.050;2023-12-22T10:51:29;8.67;;;5.93;;
22080;SDS011;11207;59.512;18.050;2023-12-22T10:53:57;6.80;;;4.90;;
22080;SDS011;11207;59.512;18.050;2023-12-22T10:56:24;5.97;;;4.90;;
22080;SDS011;11207;59.512;18.050;2023-12-22T10:58:50;6.63;;;5.07;;
22080;SDS011;11207;59.512;18.050;2023-12-22T11:01:17;7.17;;;5.37;;
22080;SDS011;11207;59.512;18.050;2023-12-22T11:03:45;6.77;;;5.17;;
22080;SDS011;11207;59.512;18.050;2023-12-22T11:06:16;7.00;;;5.37;;
22080;SDS011;11207;59.512;18.050;2023-12-22T11:08:45;7.30;;;5.40;;
22080;SDS011;11207;59.512;18.050;2023-12-22T11:11:37;6.00;;;4.70;;
22080;SDS011;11207;59.512;18.050;2023-12-22T11:14:02;6.63;;;5.17;;
22080;SDS011;11207;59.512;18.050;2023-12-22T11:16:29;10.07;;;5.30;;
22080;SDS011;11207;59.512;18.050;2023-12-22T11:18:55;5.73;;;4.90;;
22080;SDS011;11207;59.512;18.050;2023-12-22T11:21:24;6.17;;;5.00;;
22080;SDS011;11207;59.512;18.050;2023-12-22T11:23:51;6.63;;;4.77;;
22080;SDS011;11207;59.512;18.050;2023-12-22T11:26:18;6.93;;;5.20;;
22080;SDS011;11207;59.512;18.050;2023-12-22T11:28:44;6.93;;;5.53;;
22080;SDS011;11207;59.512;18.050;2023-12-22T11:31:17;7.00;;;5.47;;
22080;SDS011;11207;59.512;18.050;2023-12-22T11:33:44;6.80;;;5.30;;
22080;SDS011;11207;59.512;18.050;2023-12-22T11:36:11;8.30;;;5.37;;
22080;SDS011;11207;59.512;18.050;2023-12-22T11:38:39;6.57;;;5.47;;
22080;SDS011;11207;59.512;18.050;2023-12-22T11:41:06;7.63;;;5.10;;
22080;SDS011;11207;59.512;18.050;2023-12-22T11:43:35;6.33;;;5.27;;
22080;SDS011;11207;59.512;18.050;2023-12-22T11:46:03;6.80;;;5.57;;
22080;SDS011;11207;59.512;18.050;2023-12-22T11:48:32;7.67;;;5.23;;
22080;SDS011;11207;59.512;18.050;2023-12-22T11:50:58;6.80;;;5.30;;
22080;SDS011;11207;59.512;18.050;2023-12-22T11:53:24;6.97;;;5.27;;
22080;SDS011;11207;59.512;18.050;2023-12-22T11:56:01;6.50;;;5.23;;
22080;SDS011;11207;59.512;18.050;2023-12-22T11:58:37;7.50;;;5.53;;
22080;SDS011;11207;59.512;18.050;2023-12-22T12:01:10;7.00;;;5.53;;
22080;SDS011;11207;59.512;18.050;2023-12-22T12:03:37;6.97;;;5.23;;
22080;SDS011;11207;59.512;18.050;2023-12-22T12:09:01;5.70;;;4.90;;
22080;SDS011;11207;59.512;18.050;2023-12-22T12:14:32;6.07;;;4.80;;
22080;SDS011;11207;59.512;18.050;2023-12-22T12:17:06;6.00;;;5.20;;
22080;SDS011;11207;59.512;18.050;2023-12-22T12:19:39;5.20;;;4.67;;
22080;SDS011;11207;59.512;18.050;2023-12-22T12:22:07;6.00;;;5.40;;
22080;SDS011;11207;59.512;18.050;2023-12-22T12:24:33;6.47;;;4.70;;
22080;SDS011;11207;59.512;18.050;2023-12-22T12:26:59;6.30;;;4.93;;
22080;SDS011;11207;59.512;18.050;2023-12-22T12:29:24;5.77;;;4.93;;
22080;SDS011;11207;59.512;18.050;2023-12-22T12:31:50;5.20;;;4.33;;
22080;SDS011;11207;59.512;18.050;2023-12-22T12:34:16;5.33;;;4.80;;
22080;SDS011;11207;59.512;18.050;2023-12-22T12:36:45;6.27;;;4.97;;
22080;SDS011;11207;59.512;18.050;2023-12-22T12:39:14;6.87;;;5.30;;
22080;SDS011;11207;59.512;18.050;2023-12-22T12:41:41;6.43;;;5.00;;
22080;SDS011;11207;59.512;18.050;2023-12-22T12:44:09;7.10;;;5.23;;
22080;SDS011;11207;59.512;18.050;2023-12-22T12:46:36;5.03;;;4.50;;
22080;SDS011;11207;59.512;18.050;2023-12-22T12:49:09;5.33;;;4.70;;
22080;SDS011;11207;59.512;18.050;2023-12-22T12:51:43;5.57;;;4.83;;
22080;SDS011;11207;59.512;18.050;2023-12-22T12:54:10;5.20;;;4.70;;
22080;SDS011;11207;59.512;18.050;2023-12-22T12:56:40;5.33;;;4.57;;
22080;SDS011;11207;59.512;18.050;2023-12-22T12:59:10;6.03;;;5.17;;
22080;SDS011;11207;59.512;18.050;2023-12-22T13:01:43;6.17;;;4.87;;
22080;SDS011;11207;59.512;18.050;2023-12-22T13:04:10;6.30;;;5.00;;
22080;SDS011;11207;59.512;18.050;2023-12-22T13:06:50;5.23;;;4.63;;
22080;SDS011;11207;59.512;18.050;2023-12-22T13:09:17;5.60;;;4.63;;
22080;SDS011;11207;59.512;18.050;2023-12-22T13:11:43;7.73;;;4.80;;
22080;SDS011;11207;59.512;18.050;2023-12-22T13:14:23;5.17;;;4.27;;
22080;SDS011;11207;59.512;18.050;2023-12-22T13:16:56;5.67;;;4.73;;
22080;SDS011;11207;59.512;18.050;2023-12-22T13:19:22;5.70;;;4.47;;
22080;SDS011;11207;59.512;18.050;2023-12-22T13:21:52;4.93;;;4.40;;
22080;SDS011;11207;59.512;18.050;2023-12-22T13:24:19;6.53;;;4.73;;
22080;SDS011;11207;59.512;18.050;2023-12-22T13:26:45;7.03;;;5.10;;
22080;SDS011;11207;59.512;18.050;2023-12-22T13:29:11;5.50;;;4.87;;
22080;SDS011;11207;59.512;18.050;2023-12-22T13:31:41;5.20;;;4.57;;
22080;SDS011;11207;59.512;18.050;2023-12-22T13:34:11;5.77;;;4.17;;
22080;SDS011;11207;59.512;18.050;2023-12-22T13:36:38;4.57;;;4.13;;
22080;SDS011;11207;59.512;18.050;2023-12-22T13:39:04;4.83;;;4.27;;
22080;SDS011;11207;59.512;18.050;2023-12-22T13:41:35;4.70;;;4.13;;
22080;SDS011;11207;59.512;18.050;2023-12-22T13:44:06;5.10;;;4.53;;
22080;SDS011;11207;59.512;18.050;2023-12-22T13:46:33;4.93;;;4.23;;
22080;SDS011;11207;59.512;18.050;2023-12-22T13:49:05;4.70;;;4.23;;
22080;SDS011;11207;59.512;18.050;2023-12-22T13:51:38;5.10;;;4.47;;
22080;SDS011;11207;59.512;18.050;2023-12-22T13:54:13;6.18;;;4.68;;
22080;SDS011;11207;59.512;18.050;2023-12-22T13:56:39;5.07;;;4.30;;
22080;SDS011;11207;59.512;18.050;2023-12-22T13:59:09;5.37;;;4.40;;
22080;SDS011;11207;59.512;18.050;2023-12-22T14:01:35;5.23;;;4.40;;
22080;SDS011;11207;59.512;18.050;2023-12-22T14:04:05;5.13;;;4.37;;
22080;SDS011;11207;59.512;18.050;2023-12-22T14:06:31;4.73;;;4.07;;
22080;SDS011;11207;59.512;18.050;2023-12-22T14:08:56;4.63;;;4.20;;
22080;SDS011;11207;59.512;18.050;2023-12-22T14:11:22;6.33;;;4.87;;
22080;SDS011;11207;59.512;18.050;2023-12-22T14:13:48;5.60;;;4.40;;
22080;SDS011;11207;59.512;18.050;2023-12-22T14:16:14;5.67;;;4.50;;
22080;SDS011;11207;59.512;18.050;2023-12-22T14:18:43;6.17;;;4.90;;
22080;SDS011;11207;59.512;18.050;2023-12-22T14:21:09;4.73;;;4.33;;
22080;SDS011;11207;59.512;18.050;2023-12-22T14:23:35;4.67;;;4.20;;
22080;SDS011;11207;59.512;18.050;2023-12-22T14:26:01;4.83;;;4.43;;
22080;SDS011;11207;59.512;18.050;2023-12-22T14:28:30;5.77;;;4.53;;
22080;SDS011;11207;59.512;18.050;2023-12-22T14:30:55;5.13;;;4.20;;
22080;SDS011;11207;59.512;18.050;2023-12-22T14:33:21;5.00;;;4.33;;
22080;SDS011;11207;59.512;18.050;2023-12-22T14:35:47;4.47;;;4.07;;
22080;SDS011;11207;59.512;18.050;2023-12-22T14:38:12;4.70;;;4.30;;
22080;SDS011;11207;59.512;18.050;2023-12-22T14:40:38;4.50;;;4.10;;